createdAt,value
2018-08-17T00:02:00.155Z,20.50
2018-08-17T00:04:28.315Z,20.57
2018-08-17T00:06:56.311Z,18.20
2018-08-17T00:09:24.317Z,19.57
2018-08-17T00:11:52.531Z,24.37
2018-08-17T00:14:20.546Z,24.97
2018-08-17T00:16:48.540Z,20.70
2018-08-17T00:19:16.667Z,18.30
2018-08-17T00:21:44.712Z,26.50
2018-08-17T00:24:12.880Z,21.50
2018-08-17T00:26:40.925Z,16.60
2018-08-17T00:29:08.974Z,18.43
2018-08-17T00:31:37.164Z,22.77
2018-08-17T00:34:05.269Z,22.10
2018-08-17T00:36:33.396Z,20.07
2018-08-17T00:39:01.439Z,18.80
2018-08-17T00:41:29.643Z,17.07
2018-08-17T00:43:57.691Z,22.90
2018-08-17T00:46:25.681Z,21.10
2018-08-17T00:48:53.719Z,19.60
2018-08-17T00:51:21.783Z,19.98
2018-08-17T00:53:49.907Z,23.93
2018-08-17T00:56:18.065Z,21.73
2018-08-17T00:58:46.059Z,19.47
2018-08-17T01:01:14.089Z,19.43
2018-08-17T01:03:42.095Z,18.60
2018-08-17T01:06:10.145Z,22.23
2018-08-17T01:08:38.271Z,22.10
2018-08-17T01:11:06.365Z,18.80
2018-08-17T01:13:35.333Z,22.90
2018-08-17T01:16:03.405Z,24.50
2018-08-17T01:18:31.455Z,17.77
2018-08-17T01:20:59.511Z,26.47
2018-08-17T01:23:27.570Z,22.10
2018-08-17T01:25:55.546Z,24.37
2018-08-17T01:28:24.277Z,20.90
2018-08-17T01:30:52.348Z,23.77
2018-08-17T01:33:20.524Z,20.23
2018-08-17T01:35:48.672Z,26.30
2018-08-17T01:38:16.861Z,23.63
2018-08-17T01:40:44.919Z,21.93
2018-08-17T01:43:12.956Z,30.27
2018-08-17T01:45:41.037Z,22.13
2018-08-17T01:48:09.096Z,24.27
2018-08-17T01:50:37.167Z,31.93
2018-08-17T01:53:06.177Z,25.13
2018-08-17T01:55:34.257Z,22.62
2018-08-17T01:58:02.436Z,24.63
2018-08-17T02:00:30.504Z,24.70
2018-08-17T02:02:58.579Z,20.33
2018-08-17T02:05:26.620Z,24.32
2018-08-17T02:07:54.714Z,24.67
2018-08-17T02:10:22.765Z,26.43
2018-08-17T02:12:50.832Z,23.97
2018-08-17T02:15:18.848Z,20.93
2018-08-17T02:17:47.000Z,21.30
2018-08-17T02:20:15.072Z,30.80
2018-08-17T02:22:43.164Z,32.93
2018-08-17T02:25:11.195Z,25.57
2018-08-17T02:27:39.327Z,23.47
2018-08-17T02:30:07.611Z,22.30
2018-08-17T02:32:35.655Z,25.67
2018-08-17T02:35:04.019Z,27.07
2018-08-17T02:37:32.101Z,27.40
2018-08-17T02:40:00.183Z,25.73
2018-08-17T02:42:28.305Z,27.53
2018-08-17T02:44:56.355Z,34.85
2018-08-17T02:47:24.393Z,28.03
2018-08-17T02:49:52.445Z,26.37
2018-08-17T02:52:20.548Z,25.53
2018-08-17T02:54:48.578Z,29.60
2018-08-17T02:57:16.631Z,28.70
2018-08-17T02:59:44.657Z,25.23
2018-08-17T03:02:12.693Z,24.73
2018-08-17T03:04:40.782Z,25.00
2018-08-17T03:07:08.854Z,25.07
2018-08-17T03:09:37.812Z,23.30
2018-08-17T03:12:05.922Z,25.00
2018-08-17T03:14:33.976Z,26.60
2018-08-17T03:17:02.080Z,31.20
2018-08-17T03:19:30.118Z,26.33
2018-08-17T03:21:58.120Z,32.00
2018-08-17T03:24:26.171Z,28.00
2018-08-17T03:26:54.258Z,24.00
2018-08-17T03:29:22.416Z,31.90
2018-08-17T03:31:50.483Z,27.70
2018-08-17T03:34:18.505Z,26.70
2018-08-17T03:36:46.556Z,30.10
2018-08-17T03:39:14.599Z,28.13
2018-08-17T03:41:42.644Z,30.33
2018-08-17T03:44:10.736Z,25.00
2018-08-17T03:46:38.757Z,26.10
2018-08-17T03:49:06.783Z,29.17
2018-08-17T03:51:34.956Z,35.33
2018-08-17T03:54:03.130Z,27.47
2018-08-17T03:56:31.126Z,26.10
2018-08-17T03:58:59.225Z,28.30
2018-08-17T04:01:27.302Z,26.97
2018-08-17T04:03:55.498Z,30.63
2018-08-17T04:06:23.536Z,26.23
2018-08-17T04:08:51.585Z,29.33
2018-08-17T04:11:19.590Z,33.23
2018-08-17T04:13:47.628Z,30.57
2018-08-17T04:16:15.702Z,34.13
2018-08-17T04:18:49.280Z,31.55
2018-08-17T04:21:17.556Z,33.50
2018-08-17T04:23:45.693Z,30.30
2018-08-17T04:26:13.642Z,29.40
2018-08-17T04:28:41.691Z,29.80
2018-08-17T04:31:09.728Z,26.80
2018-08-17T04:33:37.885Z,30.07
2018-08-17T04:36:06.029Z,25.97
2018-08-17T04:38:34.260Z,26.10
2018-08-17T04:41:02.378Z,28.00
2018-08-17T04:43:30.444Z,26.07
2018-08-17T04:45:58.482Z,27.50
2018-08-17T04:48:26.652Z,27.17
2018-08-17T04:50:54.760Z,32.45
2018-08-17T04:53:22.796Z,27.90
2018-08-17T04:55:50.856Z,34.67
2018-08-17T04:58:18.915Z,28.80
2018-08-17T05:00:46.975Z,26.33
2018-08-17T05:03:15.030Z,30.77
2018-08-17T05:05:43.080Z,30.40
2018-08-17T05:08:11.308Z,28.77
2018-08-17T05:10:40.148Z,32.73
2018-08-17T05:13:08.270Z,32.90
2018-08-17T05:15:37.601Z,32.60
2018-08-17T05:18:05.908Z,33.90
2018-08-17T05:20:34.015Z,30.90
2018-08-17T05:23:02.105Z,34.90
2018-08-17T05:25:30.177Z,37.20
2018-08-17T05:27:58.279Z,34.75
2018-08-17T05:30:26.379Z,31.80
2018-08-17T05:32:54.432Z,31.57
2018-08-17T05:35:22.628Z,34.87
2018-08-17T05:37:50.776Z,33.27
2018-08-17T05:40:18.838Z,33.23
2018-08-17T05:42:46.892Z,31.20
2018-08-17T05:45:14.939Z,43.43
2018-08-17T05:47:42.972Z,32.70
2018-08-17T05:50:11.040Z,35.47
2018-08-17T05:52:39.108Z,33.80
2018-08-17T05:55:07.262Z,30.70
2018-08-17T05:57:35.624Z,32.87
2018-08-17T06:00:04.977Z,34.83
2018-08-17T06:02:33.217Z,32.80
2018-08-17T06:05:01.303Z,33.77
2018-08-17T06:07:29.376Z,38.77
2018-08-17T06:09:57.413Z,32.47
2018-08-17T06:12:25.488Z,36.50
2018-08-17T06:14:53.515Z,34.00
2018-08-17T06:17:21.557Z,45.17
2018-08-17T06:19:49.581Z,38.00
2018-08-17T06:22:19.629Z,33.00
2018-08-17T06:24:48.328Z,40.53
2018-08-17T06:27:16.328Z,33.23
2018-08-17T06:29:44.469Z,44.60
2018-08-17T06:32:12.610Z,42.33
2018-08-17T06:34:41.516Z,37.83
2018-08-17T06:37:10.243Z,34.70
2018-08-17T06:39:38.196Z,33.27
2018-08-17T06:42:06.463Z,36.87
2018-08-17T06:44:34.564Z,37.33
2018-08-17T06:47:02.723Z,35.00
2018-08-17T06:49:30.833Z,31.93
2018-08-17T06:51:58.964Z,32.20
2018-08-17T06:54:27.056Z,36.97
2018-08-17T06:56:55.227Z,37.07
2018-08-17T06:59:23.274Z,40.67
2018-08-17T07:01:51.283Z,47.85
2018-08-17T07:04:19.319Z,42.30
2018-08-17T07:06:47.335Z,48.30
2018-08-17T07:09:15.487Z,44.73
2018-08-17T07:11:43.382Z,44.30
2018-08-17T07:14:12.336Z,52.50
2018-08-17T07:16:40.443Z,45.20
2018-08-17T07:19:08.472Z,47.90
2018-08-17T07:21:36.622Z,47.90
2018-08-17T07:24:04.796Z,45.67
2018-08-17T07:26:32.920Z,52.17
2018-08-17T07:29:01.012Z,49.50
2018-08-17T07:31:29.434Z,47.30
2018-08-17T07:33:57.519Z,50.30
2018-08-17T07:36:25.561Z,42.53
2018-08-17T07:38:53.653Z,43.13
2018-08-17T07:41:21.745Z,37.60
2018-08-17T07:43:49.784Z,40.80
2018-08-17T07:46:17.963Z,34.70
2018-08-17T07:48:46.027Z,36.63
2018-08-17T07:51:14.092Z,35.73
2018-08-17T07:53:43.093Z,33.17
2018-08-17T07:56:11.343Z,36.90
2018-08-17T07:58:39.348Z,35.53
2018-08-17T08:01:07.704Z,39.33
2018-08-17T08:03:35.802Z,29.83
2018-08-17T08:06:03.976Z,31.37
2018-08-17T08:08:32.010Z,31.43
2018-08-17T08:11:00.059Z,29.07
2018-08-17T08:13:28.197Z,25.73
2018-08-17T08:15:56.257Z,25.33
2018-08-17T08:18:24.360Z,26.90
2018-08-17T08:20:52.389Z,23.17
2018-08-17T08:23:24.544Z,19.43
2018-08-17T08:25:52.736Z,23.93
2018-08-17T08:28:21.012Z,22.37
2018-08-17T08:30:49.347Z,26.20
2018-08-17T08:33:17.992Z,21.60
2018-08-17T08:35:46.392Z,22.13
2018-08-17T08:38:14.562Z,26.77
2018-08-17T08:40:43.835Z,24.67
2018-08-17T08:43:13.866Z,23.17
2018-08-17T08:45:41.909Z,20.43
2018-08-17T08:48:10.331Z,26.40
2018-08-17T08:50:39.005Z,26.70
2018-08-17T08:53:07.817Z,29.83
2018-08-17T08:55:36.024Z,27.63
2018-08-17T08:58:04.312Z,23.30
2018-08-17T09:00:32.425Z,20.03
2018-08-17T09:03:00.551Z,16.10
2018-08-17T09:05:28.613Z,19.87
2018-08-17T09:07:57.008Z,16.63
2018-08-17T09:10:25.230Z,14.33
2018-08-17T09:12:53.260Z,15.80
2018-08-17T09:15:21.332Z,15.13
2018-08-17T09:17:49.372Z,13.53
2018-08-17T09:20:17.530Z,15.50
2018-08-17T09:22:45.649Z,14.13
2018-08-17T09:25:14.430Z,12.70
2018-08-17T09:27:42.486Z,24.67
2018-08-17T09:30:12.989Z,11.67
2018-08-17T09:32:41.214Z,11.10
2018-08-17T09:35:10.311Z,11.23
2018-08-17T09:37:38.398Z,11.90
2018-08-17T09:40:07.147Z,13.27
2018-08-17T09:42:35.189Z,11.10
2018-08-17T09:45:03.430Z,11.67
2018-08-17T09:47:31.447Z,15.87
2018-08-17T09:49:59.894Z,11.63
2018-08-17T09:52:27.891Z,10.83
2018-08-17T09:54:55.965Z,8.30
2018-08-17T09:57:24.060Z,5.83
2018-08-17T09:59:52.075Z,3.20
2018-08-17T10:02:25.048Z,4.63
2018-08-17T10:04:58.590Z,3.70
2018-08-17T10:07:32.217Z,4.13
2018-08-17T10:10:05.783Z,4.53
2018-08-17T10:12:33.872Z,4.93
2018-08-17T10:15:01.973Z,8.63
2018-08-17T10:17:30.080Z,3.50
2018-08-17T10:19:58.149Z,4.83
2018-08-17T10:22:26.216Z,11.20
2018-08-17T10:24:58.669Z,3.70
2018-08-17T10:27:26.673Z,5.17
2018-08-17T10:29:54.805Z,3.90
2018-08-17T10:32:22.812Z,5.57
2018-08-17T10:34:50.844Z,8.63
2018-08-17T10:37:18.857Z,4.00
2018-08-17T10:39:46.914Z,3.17
2018-08-17T10:42:15.570Z,3.27
2018-08-17T10:44:43.637Z,10.08
2018-08-17T10:47:12.691Z,5.40
2018-08-17T10:49:40.758Z,3.40
2018-08-17T10:52:08.790Z,4.37
2018-08-17T10:54:36.927Z,4.23
2018-08-17T10:57:05.084Z,5.33
2018-08-17T10:59:33.153Z,4.70
2018-08-17T11:02:01.202Z,3.50
2018-08-17T11:04:29.240Z,3.70
2018-08-17T11:06:57.414Z,4.20
2018-08-17T11:09:25.454Z,4.40
2018-08-17T11:11:53.607Z,7.05
2018-08-17T11:14:21.630Z,7.17
2018-08-17T11:16:49.625Z,6.33
2018-08-17T11:19:17.676Z,6.80
2018-08-17T11:21:46.180Z,5.50
2018-08-17T11:24:14.225Z,4.23
2018-08-17T11:26:42.293Z,5.17
2018-08-17T11:29:10.429Z,7.77
2018-08-17T11:31:38.615Z,3.90
2018-08-17T11:34:06.733Z,3.80
2018-08-17T11:36:34.762Z,6.47
2018-08-17T11:39:03.530Z,5.50
2018-08-17T11:41:31.719Z,5.73
2018-08-17T11:44:03.657Z,5.83
2018-08-17T11:46:37.029Z,14.40
2018-08-17T11:49:05.235Z,12.43
2018-08-17T11:51:33.404Z,11.57
2018-08-17T11:54:01.556Z,4.53
2018-08-17T11:56:29.546Z,15.73
2018-08-17T11:58:57.592Z,6.23
2018-08-17T12:01:26.715Z,6.70
2018-08-17T12:03:54.896Z,15.03
2018-08-17T12:06:22.966Z,6.90
2018-08-17T12:08:51.197Z,16.37
2018-08-17T12:11:19.343Z,5.20
2018-08-17T12:13:47.380Z,10.47
2018-08-17T12:16:15.464Z,4.93
2018-08-17T12:18:43.683Z,11.80
2018-08-17T12:21:11.600Z,7.70
2018-08-17T12:23:39.624Z,11.00
2018-08-17T12:26:07.631Z,8.30
2018-08-17T12:28:35.727Z,6.90
2018-08-17T12:31:03.809Z,10.60
2018-08-17T12:33:32.002Z,12.35
2018-08-17T12:36:00.057Z,11.20
2018-08-17T12:38:28.082Z,8.53
2018-08-17T12:40:57.328Z,9.00
2018-08-17T12:43:31.948Z,11.40
2018-08-17T12:45:59.997Z,9.28
2018-08-17T12:48:28.025Z,18.23
2018-08-17T12:51:00.411Z,6.13
2018-08-17T12:53:28.489Z,7.30
2018-08-17T12:56:10.196Z,11.30
2018-08-17T12:58:38.221Z,20.97
2018-08-17T13:01:06.180Z,12.00
2018-08-17T13:03:34.131Z,11.63
2018-08-17T13:06:03.893Z,12.60
2018-08-17T13:08:31.854Z,9.10
2018-08-17T13:11:00.156Z,9.73
2018-08-17T13:13:28.211Z,8.87
2018-08-17T13:16:01.618Z,14.93
2018-08-17T13:18:30.834Z,9.73
2018-08-17T13:20:58.832Z,8.33
2018-08-17T13:23:26.794Z,12.40
2018-08-17T13:25:54.761Z,14.73
2018-08-17T13:28:22.727Z,7.55
2018-08-17T13:30:50.676Z,6.13
2018-08-17T13:33:18.720Z,6.70
2018-08-17T13:35:46.672Z,9.33
2018-08-17T13:38:14.657Z,7.70
2018-08-17T13:40:42.631Z,9.20
2018-08-17T13:43:10.669Z,5.37
2018-08-17T13:45:38.617Z,4.63
2018-08-17T13:48:06.617Z,5.57
2018-08-17T13:50:34.585Z,6.63
2018-08-17T13:53:02.566Z,8.80
2018-08-17T13:55:30.668Z,9.73
2018-08-17T13:57:58.585Z,10.43
2018-08-17T14:00:26.540Z,7.80
2018-08-17T14:02:54.508Z,6.03
2018-08-17T14:05:22.472Z,4.20
2018-08-17T14:07:50.541Z,4.10
2018-08-17T14:10:18.732Z,7.27
2018-08-17T14:12:46.676Z,7.73
2018-08-17T14:15:14.705Z,3.40
2018-08-17T14:17:42.646Z,5.80
2018-08-17T14:20:13.433Z,3.97
2018-08-17T14:22:41.941Z,7.37
2018-08-17T14:25:10.404Z,3.13
2018-08-17T14:27:38.500Z,3.90
2018-08-17T14:30:10.947Z,4.53
2018-08-17T14:32:39.182Z,4.17
2018-08-17T14:35:07.165Z,3.33
2018-08-17T14:37:35.245Z,3.13
2018-08-17T14:40:03.232Z,10.90
2018-08-17T14:42:31.313Z,3.80
2018-08-17T14:44:59.273Z,3.73
2018-08-17T14:47:27.281Z,10.03
2018-08-17T14:49:55.454Z,4.70
2018-08-17T14:52:23.377Z,4.13
2018-08-17T14:54:51.323Z,3.20
2018-08-17T14:57:19.498Z,3.33
2018-08-17T14:59:47.473Z,4.60
2018-08-17T15:02:15.448Z,3.80
2018-08-17T15:04:43.512Z,4.60
2018-08-17T15:07:11.521Z,3.40
2018-08-17T15:09:39.468Z,3.30
2018-08-17T15:12:07.496Z,5.70
2018-08-17T15:14:35.525Z,3.43
2018-08-17T15:17:03.678Z,6.60
2018-08-17T15:19:31.611Z,3.90
2018-08-17T15:21:59.616Z,6.73
2018-08-17T15:24:27.692Z,12.00
2018-08-17T15:26:55.781Z,11.37
2018-08-17T15:29:23.748Z,3.80
2018-08-17T15:31:51.808Z,3.60
2018-08-17T15:34:20.226Z,7.10
2018-08-17T15:36:48.201Z,7.23
2018-08-17T15:39:16.143Z,6.07
2018-08-17T15:41:45.260Z,3.67
2018-08-17T15:44:18.557Z,3.17
2018-08-17T15:46:46.698Z,9.63
2018-08-17T15:49:17.522Z,2.60
2018-08-17T15:51:45.481Z,4.70
2018-08-17T15:54:13.603Z,7.43
2018-08-17T15:56:41.552Z,4.23
2018-08-17T15:59:09.526Z,3.03
2018-08-17T16:01:37.451Z,5.83
2018-08-17T16:04:05.520Z,12.03
2018-08-17T16:06:33.473Z,4.50
2018-08-17T16:09:01.453Z,5.70
2018-08-17T16:11:29.476Z,12.63
2018-08-17T16:13:57.445Z,3.57
2018-08-17T16:16:25.409Z,3.90
2018-08-17T16:18:53.373Z,4.67
2018-08-17T16:21:21.328Z,123.77
2018-08-17T16:23:49.368Z,90.47
2018-08-17T16:26:17.349Z,13.63
2018-08-17T16:28:45.291Z,6.83
2018-08-17T16:31:13.278Z,5.80
2018-08-17T16:33:41.296Z,5.60
2018-08-17T16:36:09.252Z,8.27
2018-08-17T16:38:38.084Z,2.93
2018-08-17T16:41:06.460Z,4.70
2018-08-17T16:43:41.837Z,4.72
2018-08-17T16:46:09.900Z,4.10
2018-08-17T16:48:38.515Z,4.70
2018-08-17T16:51:06.472Z,5.97
2018-08-17T16:53:34.471Z,4.47
2018-08-17T16:56:02.558Z,4.30
2018-08-17T16:58:30.552Z,4.83
2018-08-17T17:00:58.663Z,4.50
2018-08-17T17:03:26.588Z,5.67
2018-08-17T17:06:00.092Z,4.10
2018-08-17T17:08:28.414Z,7.00
2018-08-17T17:10:56.477Z,10.73
2018-08-17T17:13:24.755Z,7.30
2018-08-17T17:15:52.707Z,11.40
2018-08-17T17:18:20.635Z,9.17
2018-08-17T17:20:48.620Z,8.10
2018-08-17T17:23:16.595Z,7.90
2018-08-17T17:25:44.590Z,5.50
2018-08-17T17:28:12.657Z,8.80
2018-08-17T17:30:46.209Z,9.47
2018-08-17T17:33:14.177Z,11.50
2018-08-17T17:35:43.049Z,12.83
2018-08-17T17:38:11.539Z,24.47
2018-08-17T17:40:40.032Z,36.83
2018-08-17T17:43:08.280Z,13.10
2018-08-17T17:45:36.862Z,7.97
2018-08-17T17:48:05.014Z,6.50
2018-08-17T17:50:33.076Z,10.30
2018-08-17T17:53:02.088Z,6.80
2018-08-17T17:55:35.272Z,5.73
2018-08-17T17:58:03.254Z,6.07
2018-08-17T18:00:31.288Z,7.10
2018-08-17T18:02:59.238Z,9.77
2018-08-17T18:05:27.199Z,8.70
2018-08-17T18:07:58.680Z,6.50
2018-08-17T18:10:26.680Z,12.23
2018-08-17T18:12:54.690Z,8.07
2018-08-17T18:15:22.838Z,7.90
2018-08-17T18:17:50.822Z,7.17
2018-08-17T18:20:18.880Z,10.63
2018-08-17T18:22:46.876Z,7.87
2018-08-17T18:25:17.719Z,7.57
2018-08-17T18:27:46.068Z,6.97
2018-08-17T18:30:14.227Z,11.87
2018-08-17T18:32:42.276Z,10.70
2018-08-17T18:35:10.399Z,8.27
2018-08-17T18:37:38.462Z,7.80
2018-08-17T18:40:07.760Z,12.63
2018-08-17T18:42:35.955Z,5.70
2018-08-17T18:45:04.085Z,8.03
2018-08-17T18:47:32.068Z,9.50
2018-08-17T18:50:00.041Z,9.77
2018-08-17T18:52:28.088Z,13.90
2018-08-17T18:54:56.060Z,8.80
2018-08-17T18:57:24.166Z,8.50
2018-08-17T18:59:52.236Z,10.77
2018-08-17T19:02:20.189Z,8.57
2018-08-17T19:04:48.299Z,8.93
2018-08-17T19:07:16.254Z,11.33
2018-08-17T19:09:44.663Z,8.80
2018-08-17T19:12:12.957Z,9.53
2018-08-17T19:14:43.952Z,9.57
2018-08-17T19:17:17.458Z,13.90
2018-08-17T19:19:45.412Z,11.43
2018-08-17T19:22:13.475Z,11.37
2018-08-17T19:24:41.556Z,12.73
2018-08-17T19:27:14.280Z,9.23
2018-08-17T19:29:42.241Z,11.10
2018-08-17T19:32:10.216Z,13.50
2018-08-17T19:34:38.134Z,10.93
2018-08-17T19:37:06.157Z,11.50
2018-08-17T19:39:34.380Z,11.23
2018-08-17T19:42:02.863Z,9.33
2018-08-17T19:44:30.860Z,9.87
2018-08-17T19:46:58.875Z,12.43
2018-08-17T19:49:26.845Z,21.17
2018-08-17T19:51:54.884Z,12.10
2018-08-17T19:54:22.864Z,10.30
2018-08-17T19:56:50.949Z,14.87
2018-08-17T19:59:18.932Z,14.97
2018-08-17T20:01:46.919Z,10.50
2018-08-17T20:04:14.879Z,18.03
2018-08-17T20:06:42.863Z,12.67
2018-08-17T20:09:11.472Z,14.60
2018-08-17T20:11:39.434Z,12.23
2018-08-17T20:14:07.384Z,15.33
2018-08-17T20:16:35.351Z,11.03
2018-08-17T20:19:03.381Z,15.80
2018-08-17T20:21:31.314Z,12.73
2018-08-17T20:23:59.261Z,13.47
2018-08-17T20:26:27.423Z,11.90
2018-08-17T20:28:55.211Z,15.80
2018-08-17T20:31:23.640Z,16.73
2018-08-17T20:33:51.904Z,16.03
2018-08-17T20:36:21.907Z,15.77
2018-08-17T20:38:50.101Z,17.30
2018-08-17T20:41:22.959Z,15.03
2018-08-17T20:43:50.907Z,15.03
2018-08-17T20:46:18.968Z,18.90
2018-08-17T20:48:48.089Z,16.03
2018-08-17T20:51:21.662Z,16.47
2018-08-17T20:53:54.277Z,19.77
2018-08-17T20:56:22.465Z,20.93
2018-08-17T20:58:50.412Z,19.93
2018-08-17T21:01:18.359Z,19.33
2018-08-17T21:03:46.414Z,16.90
2018-08-17T21:06:14.393Z,17.50
2018-08-17T21:08:42.337Z,18.23
2018-08-17T21:11:10.285Z,26.80
2018-08-17T21:13:38.236Z,24.70
2018-08-17T21:16:06.313Z,17.13
2018-08-17T21:18:34.268Z,18.33
2018-08-17T21:21:02.275Z,19.93
2018-08-17T21:23:30.324Z,16.67
2018-08-17T21:25:58.360Z,15.87
2018-08-17T21:28:26.387Z,15.67
2018-08-17T21:30:54.340Z,23.53
2018-08-17T21:33:22.280Z,16.27
2018-08-17T21:35:50.245Z,22.37
2018-08-17T21:38:18.225Z,22.13
2018-08-17T21:40:46.232Z,23.02
2018-08-17T21:43:14.198Z,26.20
2018-08-17T21:45:44.640Z,18.77
2018-08-17T21:48:17.946Z,19.00
2018-08-17T21:50:45.940Z,18.40
2018-08-17T21:53:14.082Z,17.67
2018-08-17T21:55:42.107Z,16.60
2018-08-17T21:58:10.163Z,21.10
2018-08-17T22:00:38.169Z,18.93
2018-08-17T22:03:16.099Z,22.30
2018-08-17T22:05:44.143Z,17.43
2018-08-17T22:08:12.136Z,18.23
2018-08-17T22:10:40.092Z,18.70
2018-08-17T22:13:18.288Z,17.73
2018-08-17T22:15:46.252Z,18.40
2018-08-17T22:18:14.212Z,19.50
2018-08-17T22:20:42.184Z,17.73
2018-08-17T22:23:10.168Z,21.37
2018-08-17T22:25:38.116Z,22.80
2018-08-17T22:28:06.139Z,19.13
2018-08-17T22:30:34.088Z,23.70
2018-08-17T22:33:02.096Z,20.97
2018-08-17T22:35:30.181Z,18.60
2018-08-17T22:37:58.042Z,18.90
2018-08-17T22:40:27.408Z,18.30
2018-08-17T22:42:55.452Z,24.83
2018-08-17T22:45:23.407Z,20.43
2018-08-17T22:47:51.440Z,23.37
2018-08-17T22:50:19.359Z,20.30
2018-08-17T22:52:47.311Z,23.27
2018-08-17T22:55:15.378Z,20.63
2018-08-17T22:57:43.336Z,21.40
2018-08-17T23:00:20.536Z,22.20
2018-08-17T23:02:49.756Z,19.33
2018-08-17T23:05:19.167Z,18.33
2018-08-17T23:07:47.153Z,22.43
2018-08-17T23:10:21.066Z,19.03
2018-08-17T23:12:50.184Z,23.70
2018-08-17T23:15:18.168Z,21.53
2018-08-17T23:17:48.812Z,21.27
2018-08-17T23:20:21.027Z,19.93
2018-08-17T23:22:50.907Z,19.20
2018-08-17T23:25:18.992Z,21.23
2018-08-17T23:27:47.898Z,20.53
2018-08-17T23:30:15.864Z,26.90
2018-08-17T23:32:44.523Z,24.63
2018-08-17T23:35:12.544Z,22.77
2018-08-17T23:37:40.483Z,20.37
2018-08-17T23:40:09.135Z,21.33
2018-08-17T23:42:37.231Z,17.83
2018-08-17T23:45:06.840Z,23.83
2018-08-17T23:47:35.233Z,19.90
2018-08-17T23:50:03.241Z,22.03
2018-08-17T23:52:31.212Z,20.23
2018-08-17T23:54:59.284Z,22.00
2018-08-17T23:57:28.000Z,24.18
2018-08-17T23:59:56.480Z,17.10
